Main page
METAR-TAF:

METAR-TAF

Airports :

Barcelona–El Prat Airport

Barcelona, Spain

latitude: 41-17N, longitude: 002-04E, elevation: 4 m

Current weather observation

The report was made 29 minutes ago, at 21:30 UTC
Wind 10 kt from the North/Northwest
Temperature 9°C
Humidity 76%
Pressure 1022 hPa
Visibility 10 km or more
no clouds below 1500 m and no cumulonimbus

METAR: LEBL 102130Z 33010KT CAVOK 09/05 Q1022 NOSIG

Time: 22:59 (21:59 UTC)

Forecast

The report was made 4 hours and 59 minutes ago, at 17:00 UTC
Forecast valid from 10 at 18 UTC to 11 at 18 UTC
Wind 8 kt from the North/Northwest
Visibility 10 km or more
Few clouds at a height of 3000 ft
Becoming
from 11 at 10 UTC to 11 at 12 UTC
Wind 7 kt from the West/Southwest
Becoming
from 11 at 16 UTC to 11 at 18 UTC
Wind 8 kt from the Northwest

TAF: LEBL 101700Z 1018/1118 34008KT 9999 FEW030 TX17/1112Z TN07/1106Z BECMG 1110/1112 24007KT BECMG 1116/1118 31008KT

Weather observations and forecasts of more than 4000 airports (METAR and TAF reports).

The available stations are represented by yellow and red dots on the map.

Hover mouse over dot to see the name of the station.

Then click to see weather observations and forecasts.

To change the map : click on the green buttons with a black cross to zoom in, on the green button with a dash to zoom out, or on the green arrows for adjacent maps.


METAR-TAF: